Time;durP1;ratioP1;P1;durP2;ratioP2;P2;SDS_P1;SDS_P2;PMS_P1;PMS_P2;Temp;Humidity;BMP_temperature;BMP_pressure;BME280_temperature;BME280_humidity;BME280_pressure;Samples;Min_cycle;Max_cycle;Signal;HPM_P1;HPM_P2
2022/06/01 00:01:28;;;;;;;;;;;;;;;;;;5004273;28;19914;-80
2022/06/01 00:03:53;;;;;;;;;;;;;;;;;;4995107;28;19917;-79
2022/06/01 00:06:19;;;;;;;;;;;;;;;;;;4978030;28;20373;-80
2022/06/01 00:08:44;;;;;;;;;;;;;;;;;;4985220;28;20120;-80
2022/06/01 00:11:09;;;;;;;;;;;;;;;;;;4975401;28;19913;-80
2022/06/01 00:13:34;;;;;;;;;;;;;;;;;;4987386;28;19917;-80
2022/06/01 00:16:00;;;;;;;;;;;;;;;;;;5002669;28;19980;-80
2022/06/01 00:18:25;;;;;;;;;;;;;;;;;;4988245;28;19918;-80
2022/06/01 00:20:50;;;;;;;;;;;;;;;;;;4976797;28;19918;-80
2022/06/01 00:23:19;;;;;;;;;;;;;;;;;;4960282;28;20496;-80
2022/06/01 00:25:44;;;;;;;;;;;;;;;;;;4965337;28;20385;-80
2022/06/01 00:28:09;;;;;;;;;;;;;;;;;;4994167;28;19967;-80
2022/06/01 00:30:34;;;;;;;;;;;;;;;;;;4996087;28;20399;-80
2022/06/01 00:33:00;;;;;;;;;;;;;;;;;;4994444;28;19953;-80
2022/06/01 00:35:26;;;;;;;;;;;;;;;;;;4982939;28;19922;-80
2022/06/01 00:37:51;;;;;;;;;;;;;;;;;;4980401;28;19924;-80
2022/06/01 00:40:18;;;;;;;;;;;;;;;;;;4967351;28;20121;-80
2022/06/01 00:42:44;;;;;;;;;;;;;;;;;;4984755;28;20518;-82
2022/06/01 00:45:11;;;;;;;;;;;;;;;;;;4992540;28;19924;-80
2022/06/01 00:47:36;;;;;;;;;;;;;;;;;;4979390;28;19917;-80
2022/06/01 00:50:11;;;;;;;;;;;;;;;;;;4979990;28;20315;-81
2022/06/01 00:52:38;;;;;;;;;;;;;;;;;;4993249;28;19921;-80
2022/06/01 00:55:06;;;;;;;;;;;;;;;;;;4986628;28;19921;-80
2022/06/01 00:57:32;;;;;;;;;;;;;;;;;;4996547;28;20309;-80
2022/06/01 00:59:57;;;;;;;;;;;;;;;;;;4978496;28;20246;-79
2022/06/01 01:02:22;;;;;;;;;;;;;;;;;;4978576;28;19961;-80
2022/06/01 01:04:47;;;;;;;;;;;;;;;;;;4978167;28;19921;-80
2022/06/01 01:07:13;;;;;;;;;;;;;;;;;;4990563;28;19918;-80
2022/06/01 01:09:38;;;;;;;;;;;;;;;;;;4988589;28;19990;-80
2022/06/01 01:12:08;;;;;;;;;;;;;;;;;;4997124;28;19924;-80
2022/06/01 01:14:34;;;;;;;;;;;;;;;;;;4994016;28;20415;-80
2022/06/01 01:16:59;;;;;;;;;;;;;;;;;;4980257;28;20117;-78
2022/06/01 01:19:33;;;;;;;;;;;;;;;;;;4992787;28;20004;-81
2022/06/01 01:22:17;;;;;;;;;;;;;;;;;;4993147;28;19925;-81
2022/06/01 01:25:00;;;;;;;;;;;;;;;;;;4974507;28;19921;-81
2022/06/01 01:27:26;;;;;;;;;;;;;;;;;;4994420;28;19925;-81
2022/06/01 01:29:51;;;;;;;;;;;;;;;;;;4979856;28;20297;-81
2022/06/01 01:32:16;;;;;;;;;;;;;;;;;;5001626;28;19925;-80
2022/06/01 01:34:42;;;;;;;;;;;;;;;;;;4978647;28;19928;-80
2022/06/01 01:37:09;;;;;;;;;;;;;;;;;;5000935;28;19921;-81
2022/06/01 01:39:34;;;;;;;;;;;;;;;;;;4977678;28;20020;-81
2022/06/01 01:42:00;;;;;;;;;;;;;;;;;;4974614;28;20317;-80
2022/06/01 01:44:25;;;;;;;;;;;;;;;;;;4996798;28;20777;-81
2022/06/01 01:46:51;;;;;;;;;;;;;;;;;;4993683;28;20365;-81
2022/06/01 01:49:17;;;;;;;;;;;;;;;;;;4986738;28;19917;-81
2022/06/01 01:51:43;;;;;;;;;;;;;;;;;;4994903;28;20003;-81
2022/06/01 01:54:12;;;;;;;;;;;;;;;;;;4991809;28;19928;-81
2022/06/01 01:56:56;;;;;;;;;;;;;;;;;;4984684;28;19929;-81
2022/06/01 01:59:21;;;;;;;;;;;;;;;;;;4983256;28;19921;-80
2022/06/01 02:01:49;;;;;;;;;;;;;;;;;;4995820;28;19924;-81
2022/06/01 02:07:04;;;;;;;;;;;;;;;;;;4992129;28;19928;-78
2022/06/01 02:12:40;;;;;;;;;;;;;;;;;;4995053;28;19914;-80
2022/06/01 02:14:58;;;;;;;;;;;;;;;;;;4993474;28;20000;-81
2022/06/01 02:17:25;;;;;;;;;;;;;;;;;;5000812;28;20393;-81
2022/06/01 02:19:53;;;;;;;;;;;;;;;;;;4985460;28;19957;-81
2022/06/01 02:22:18;;;;;;;;;;;;;;;;;;4993473;28;19945;-81
2022/06/01 02:24:43;;;;;;;;;;;;;;;;;;4978494;28;19917;-81
2022/06/01 02:27:09;;;;;;;;;;;;;;;;;;4981995;28;20316;-81
2022/06/01 02:29:35;;;;;;;;;;;;;;;;;;4979360;28;19924;-81
2022/06/01 02:35:04;;;;;;;;;;;;;;;;;;4992546;28;20395;-81
2022/06/01 02:37:29;;;;;;;;;;;;;;;;;;4980889;28;19973;-81
2022/06/01 02:39:55;;;;;;;;;;;;;;;;;;4985450;28;19925;-80
2022/06/01 02:42:26;;;;;;;;;;;;;;;;;;4984480;28;19922;-81
2022/06/01 02:44:55;;;;;;;;;;;;;;;;;;4992972;28;20004;-81
2022/06/01 02:47:20;;;;;;;;;;;;;;;;;;4993104;28;19917;-81
2022/06/01 02:49:46;;;;;;;;;;;;;;;;;;4991934;28;19964;-81
2022/06/01 02:52:11;;;;;;;;;;;;;;;;;;4984044;28;19914;-80
2022/06/01 02:54:36;;;;;;;;;;;;;;;;;;4991047;28;19932;-80
2022/06/01 02:57:01;;;;;;;;;;;;;;;;;;4989245;28;19918;-80
2022/06/01 02:59:26;;;;;;;;;;;;;;;;;;4979569;28;19920;-81
2022/06/01 03:01:52;;;;;;;;;;;;;;;;;;4992134;28;19921;-82
2022/06/01 03:04:17;;;;;;;;;;;;;;;;;;4978980;28;19918;-83
2022/06/01 03:06:42;;;;;;;;;;;;;;;;;;4974430;28;19964;-82
2022/06/01 03:09:07;;;;;;;;;;;;;;;;;;4979214;28;20357;-82
2022/06/01 03:11:33;;;;;;;;;;;;;;;;;;4976467;28;19910;-82
2022/06/01 03:13:58;;;;;;;;;;;;;;;;;;4975752;28;20408;-82
2022/06/01 03:16:23;;;;;;;;;;;;;;;;;;4965186;28;20354;-82
2022/06/01 03:18:48;;;;;;;;;;;;;;;;;;4959036;28;19953;-83
2022/06/01 03:21:14;;;;;;;;;;;;;;;;;;4964975;28;20003;-82
2022/06/01 03:23:40;;;;;;;;;;;;;;;;;;4959189;28;20397;-82
2022/06/01 03:26:05;;;;;;;;;;;;;;;;;;4965904;28;19918;-82
2022/06/01 03:28:30;;;;;;;;;;;;;;;;;;4991816;28;20392;-81
2022/06/01 03:30:55;;;;;;;;;;;;;;;;;;4994617;28;19950;-82
2022/06/01 03:33:21;;;;;;;;;;;;;;;;;;4975969;28;19918;-82
2022/06/01 03:35:46;;;;;;;;;;;;;;;;;;4972955;28;20012;-83
2022/06/01 03:38:12;;;;;;;;;;;;;;;;;;4995370;28;19933;-83
2022/06/01 03:40:37;;;;;;;;;;;;;;;;;;4981307;28;19914;-84
2022/06/01 03:43:03;;;;;;;;;;;;;;;;;;4982481;28;20380;-83
2022/06/01 03:48:14;;;;;;;;;;;;;;;;;;4994861;28;20007;-81
2022/06/01 03:50:39;;;;;;;;;;;;;;;;;;4994476;28;19975;-81
2022/06/01 03:53:05;;;;;;;;;;;;;;;;;;4982679;28;20012;-81
2022/06/01 03:55:31;;;;;;;;;;;;;;;;;;4982309;28;19922;-82
2022/06/01 03:57:56;;;;;;;;;;;;;;;;;;4978816;28;19913;-82
2022/06/01 04:00:22;;;;;;;;;;;;;;;;;;4995461;28;19925;-83
2022/06/01 04:02:47;;;;;;;;;;;;;;;;;;4995335;28;20346;-82
2022/06/01 04:05:12;;;;;;;;;;;;;;;;;;4980321;28;19917;-82
2022/06/01 04:07:38;;;;;;;;;;;;;;;;;;4988386;28;20399;-82
2022/06/01 04:10:03;;;;;;;;;;;;;;;;;;4988858;28;19918;-82
2022/06/01 04:12:29;;;;;;;;;;;;;;;;;;4994369;28;19974;-83
2022/06/01 04:14:54;;;;;;;;;;;;;;;;;;4995115;28;19956;-82
2022/06/01 04:17:19;;;;;;;;;;;;;;;;;;4992828;28;19918;-82
2022/06/01 04:19:44;;;;;;;;;;;;;;;;;;4980866;28;20001;-82
2022/06/01 04:22:10;;;;;;;;;;;;;;;;;;4988502;28;19920;-82
2022/06/01 04:24:35;;;;;;;;;;;;;;;;;;4982521;28;19917;-82
2022/06/01 04:27:00;;;;;;;;;;;;;;;;;;4978183;28;19930;-82
2022/06/01 04:29:26;;;;;;;;;;;;;;;;;;4977485;28;20594;-81
2022/06/01 04:31:53;;;;;;;;;;;;;;;;;;4971624;28;19945;-82
2022/06/01 04:34:18;;;;;;;;;;;;;;;;;;5001029;28;19918;-83
2022/06/01 04:36:43;;;;;;;;;;;;;;;;;;4973897;28;19925;-82
2022/06/01 04:39:08;;;;;;;;;;;;;;;;;;4979561;28;19918;-82
2022/06/01 04:41:34;;;;;;;;;;;;;;;;;;5004016;28;19914;-83
2022/06/01 04:43:59;;;;;;;;;;;;;;;;;;4978453;28;19954;-83
2022/06/01 04:46:24;;;;;;;;;;;;;;;;;;4985715;28;19924;-82
2022/06/01 04:48:50;;;;;;;;;;;;;;;;;;4982847;28;20293;-91
2022/06/01 04:51:15;;;;;;;;;;;;;;;;;;4992665;28;19917;-89
2022/06/01 04:53:43;;;;;;;;;;;;;;;;;;4993765;28;19947;-89
2022/06/01 04:56:11;;;;;;;;;;;;;;;;;;4984243;28;20296;-88
2022/06/01 04:58:36;;;;;;;;;;;;;;;;;;4976270;28;19960;-87
2022/06/01 05:01:01;;;;;;;;;;;;;;;;;;4965662;28;19953;-86
2022/06/01 05:03:26;;;;;;;;;;;;;;;;;;4967084;28;20016;-83
2022/06/01 05:05:51;;;;;;;;;;;;;;;;;;4980966;28;20270;-82
2022/06/01 05:08:17;;;;;;;;;;;;;;;;;;4994539;28;19928;-82
2022/06/01 05:10:42;;;;;;;;;;;;;;;;;;5002324;28;20793;-82
2022/06/01 05:13:08;;;;;;;;;;;;;;;;;;4980466;28;20001;-82
2022/06/01 05:15:33;;;;;;;;;;;;;;;;;;4984097;28;19928;-82
2022/06/01 05:17:58;;;;;;;;;;;;;;;;;;4983527;28;20008;-84
2022/06/01 05:20:23;;;;;;;;;;;;;;;;;;4975702;28;20380;-82
2022/06/01 05:22:49;;;;;;;;;;;;;;;;;;4993597;28;19925;-82
2022/06/01 05:25:14;;;;;;;;;;;;;;;;;;4984241;28;19918;-82
2022/06/01 05:27:39;;;;;;;;;;;;;;;;;;4985840;28;19926;-82
2022/06/01 05:30:04;;;;;;;;;;;;;;;;;;4991604;28;19924;-82
2022/06/01 05:32:30;;;;;;;;;;;;;;;;;;4963131;28;20008;-81
2022/06/01 05:34:55;;;;;;;;;;;;;;;;;;4974472;28;20025;-81
2022/06/01 05:37:20;;;;;;;;;;;;;;;;;;4977103;28;20003;-82
2022/06/01 05:39:45;;;;;;;;;;;;;;;;;;4980124;28;19914;-81
2022/06/01 05:42:11;;;;;;;;;;;;;;;;;;4985560;28;20420;-81
2022/06/01 05:44:36;;;;;;;;;;;;;;;;;;4994328;28;19924;-82
2022/06/01 05:47:04;;;;;;;;;;;;;;;;;;4976192;28;20420;-82
2022/06/01 05:49:30;;;;;;;;;;;;;;;;;;4981360;28;19917;-81
2022/06/01 05:51:55;;;;;;;;;;;;;;;;;;4978559;28;20990;-82
2022/06/01 05:54:20;;;;;;;;;;;;;;;;;;4966740;28;20037;-82
2022/06/01 05:56:46;;;;;;;;;;;;;;;;;;4973055;28;19918;-82
2022/06/01 05:59:11;;;;;;;;;;;;;;;;;;4981573;28;21060;-81
2022/06/01 06:01:37;;;;;;;;;;;;;;;;;;4991998;28;19949;-82
2022/06/01 06:04:05;;;;;;;;;;;;;;;;;;4979893;28;20435;-81
2022/06/01 06:06:30;;;;;;;;;;;;;;;;;;4980830;28;19919;-82
2022/06/01 06:08:55;;;;;;;;;;;;;;;;;;5001797;28;20204;-82
2022/06/01 06:11:21;;;;;;;;;;;;;;;;;;4988941;28;20370;-82
2022/06/01 06:13:47;;;;;;;;;;;;;;;;;;4973203;28;20736;-82
2022/06/01 06:16:12;;;;;;;;;;;;;;;;;;4980110;28;19928;-81
2022/06/01 06:18:38;;;;;;;;;;;;;;;;;;4968677;28;19957;-82
2022/06/01 06:21:03;;;;;;;;;;;;;;;;;;4969275;28;19917;-83
2022/06/01 06:23:29;;;;;;;;;;;;;;;;;;4980242;28;19928;-82
2022/06/01 06:25:54;;;;;;;;;;;;;;;;;;4978658;28;19993;-82
2022/06/01 06:28:19;;;;;;;;;;;;;;;;;;5002457;28;19975;-81
2022/06/01 06:30:44;;;;;;;;;;;;;;;;;;4979221;28;19924;-81
2022/06/01 06:33:10;;;;;;;;;;;;;;;;;;4980542;28;19917;-81
2022/06/01 06:35:35;;;;;;;;;;;;;;;;;;4991483;28;20409;-82
2022/06/01 06:38:00;;;;;;;;;;;;;;;;;;4981235;28;20554;-82
2022/06/01 06:40:33;;;;;;;;;;;;;;;;;;4975649;28;19961;-82
2022/06/01 06:43:08;;;;;;;;;;;;;;;;;;4964912;28;19926;-82
2022/06/01 06:45:33;;;;;;;;;;;;;;;;;;4991680;28;19921;-81
2022/06/01 06:48:10;;;;;;;;;;;;;;;;;;4981667;28;20365;-82
2022/06/01 06:50:35;;;;;;;;;;;;;;;;;;4978659;28;19924;-81
2022/06/01 06:53:00;;;;;;;;;;;;;;;;;;4979742;28;19922;-82
2022/06/01 06:55:25;;;;;;;;;;;;;;;;;;4978709;28;19921;-82
2022/06/01 06:57:51;;;;;;;;;;;;;;;;;;4957556;28;19917;-82
2022/06/01 07:00:16;;;;;;;;;;;;;;;;;;4967358;28;20360;-82
2022/06/01 07:02:42;;;;;;;;;;;;;;;;;;4980880;28;19926;-82
2022/06/01 07:05:07;;;;;;;;;;;;;;;;;;4993672;28;20711;-81
2022/06/01 07:07:34;;;;;;;;;;;;;;;;;;4975546;28;19917;-82
2022/06/01 07:09:59;;;;;;;;;;;;;;;;;;4977549;28;19917;-82
2022/06/01 07:12:24;;;;;;;;;;;;;;;;;;5003128;28;19972;-82
2022/06/01 07:14:52;;;;;;;;;;;;;;;;;;4996623;28;19918;-83
2022/06/01 07:17:17;;;;;;;;;;;;;;;;;;4986056;28;19922;-82
2022/06/01 07:19:42;;;;;;;;;;;;;;;;;;4999464;28;19928;-82
2022/06/01 07:22:08;;;;;;;;;;;;;;;;;;4987280;28;20246;-82
2022/06/01 07:24:35;;;;;;;;;;;;;;;;;;4983274;28;19972;-82
2022/06/01 07:27:04;;;;;;;;;;;;;;;;;;4996061;28;19948;-82
2022/06/01 07:29:32;;;;;;;;;;;;;;;;;;4984732;28;19918;-82
2022/06/01 07:32:00;;;;;;;;;;;;;;;;;;4989047;28;19922;-82
2022/06/01 07:34:25;;;;;;;;;;;;;;;;;;4996419;28;19956;-82
2022/06/01 07:36:50;;;;;;;;;;;;;;;;;;4982065;28;19952;-83
2022/06/01 07:44:46;;;;;;;;;;;;;;;;;;4995526;28;20285;-81
2022/06/01 07:47:12;;;;;;;;;;;;;;;;;;4996443;28;20381;-82
2022/06/01 07:49:37;;;;;;;;;;;;;;;;;;4994500;28;19928;-81
2022/06/01 07:52:03;;;;;;;;;;;;;;;;;;4995460;28;19918;-81
2022/06/01 07:54:29;;;;;;;;;;;;;;;;;;4982403;28;20025;-82
2022/06/01 07:56:54;;;;;;;;;;;;;;;;;;4980662;28;20379;-82
2022/06/01 07:59:19;;;;;;;;;;;;;;;;;;5004703;28;19909;-82
2022/06/01 08:01:47;;;;;;;;;;;;;;;;;;4995786;28;20769;-82
2022/06/01 08:04:13;;;;;;;;;;;;;;;;;;4970849;28;19921;-82
2022/06/01 08:06:38;;;;;;;;;;;;;;;;;;4986268;28;19929;-82
2022/06/01 08:09:04;;;;;;;;;;;;;;;;;;4988236;28;19924;-81
2022/06/01 08:14:14;;;;;;;;;;;;;;;;;;4994541;28;19964;-82
2022/06/01 08:16:40;;;;;;;;;;;;;;;;;;4982695;28;19925;-82
2022/06/01 08:19:05;;;;;;;;;;;;;;;;;;4978035;28;19925;-82
2022/06/01 08:21:31;;;;;;;;;;;;;;;;;;4987522;28;20457;-83
2022/06/01 08:23:56;;;;;;;;;;;;;;;;;;4982781;28;20439;-82
2022/06/01 08:26:21;;;;;;;;;;;;;;;;;;4982392;28;19918;-83
2022/06/01 08:28:49;;;;;;;;;;;;;;;;;;4981670;28;19926;-82
2022/06/01 08:31:15;;;;;;;;;;;;;;;;;;4981871;28;20301;-82
2022/06/01 08:33:40;;;;;;;;;;;;;;;;;;4981712;28;19917;-82
2022/06/01 08:36:06;;;;;;;;;;;;;;;;;;4994848;28;19917;-82
2022/06/01 08:38:31;;;;;;;;;;;;;;;;;;4982058;28;19918;-82
2022/06/01 08:41:03;;;;;;;;;;;;;;;;;;4964946;28;19920;-82
2022/06/01 08:43:29;;;;;;;;;;;;;;;;;;4994541;28;19918;-83
2022/06/01 08:45:58;;;;;;;;;;;;;;;;;;4980029;28;20369;-82
2022/06/01 08:48:34;;;;;;;;;;;;;;;;;;4993820;28;20054;-82
2022/06/01 08:50:59;;;;;;;;;;;;;;;;;;4977898;28;19917;-84
2022/06/01 08:53:25;;;;;;;;;;;;;;;;;;4968357;28;20342;-85
2022/06/01 08:55:53;;;;;;;;;;;;;;;;;;4994597;28;19924;-84
2022/06/01 08:58:20;;;;;;;;;;;;;;;;;;4994183;28;19971;-86
2022/06/01 09:00:49;;;;;;;;;;;;;;;;;;4980483;28;20427;-86
2022/06/01 09:03:21;;;;;;;;;;;;;;;;;;4964846;28;19922;-85
2022/06/01 09:06:01;;;;;;;;;;;;;;;;;;4991795;28;19917;-85
2022/06/01 09:08:34;;;;;;;;;;;;;;;;;;4981757;28;19970;-85
2022/06/01 09:11:08;;;;;;;;;;;;;;;;;;4976689;28;19924;-85
2022/06/01 09:13:46;;;;;;;;;;;;;;;;;;4981801;28;19917;-85
2022/06/01 09:16:17;;;;;;;;;;;;;;;;;;4977826;28;19922;-85
2022/06/01 09:18:44;;;;;;;;;;;;;;;;;;4993665;28;20400;-85
2022/06/01 09:24:30;;;;;;;;;;;;;;;;;;4993995;28;20144;-86
2022/06/01 09:27:02;;;;;;;;;;;;;;;;;;4984908;28;19925;-85
2022/06/01 09:29:28;;;;;;;;;;;;;;;;;;5002182;28;19928;-85
2022/06/01 09:31:58;;;;;;;;;;;;;;;;;;4975742;28;19922;-85
2022/06/01 09:34:25;;;;;;;;;;;;;;;;;;4967720;28;21223;-85
2022/06/01 09:36:56;;;;;;;;;;;;;;;;;;4985394;28;19941;-85
2022/06/01 09:39:21;;;;;;;;;;;;;;;;;;5009268;28;20396;-85
2022/06/01 09:41:46;;;;;;;;;;;;;;;;;;4979736;28;19922;-85
2022/06/01 09:44:14;;;;;;;;;;;;;;;;;;4978592;28;19925;-85
2022/06/01 09:46:40;;;;;;;;;;;;;;;;;;4972658;28;19925;-85
2022/06/01 09:49:08;;;;;;;;;;;;;;;;;;4996764;28;19917;-84
2022/06/01 09:51:34;;;;;;;;;;;;;;;;;;4976741;28;19917;-85
2022/06/01 09:54:09;;;;;;;;;;;;;;;;;;4961190;28;20394;-85
2022/06/01 09:56:44;;;;;;;;;;;;;;;;;;5007720;28;19917;-85
2022/06/01 10:07:41;;;;;;;;;;;;;;;;;;4990254;28;20004;-85
2022/06/01 10:10:06;;;;;;;;;;;;;;;;;;4974506;28;20480;-84
2022/06/01 10:12:33;;;;;;;;;;;;;;;;;;4975834;28;19925;-84
2022/06/01 10:14:58;;;;;;;;;;;;;;;;;;4993306;28;19921;-83
2022/06/01 10:17:28;;;;;;;;;;;;;;;;;;4978745;28;20373;-84
2022/06/01 10:19:53;;;;;;;;;;;;;;;;;;4986109;28;19917;-85
2022/06/01 10:22:18;;;;;;;;;;;;;;;;;;4994772;28;19918;-83
2022/06/01 10:24:48;;;;;;;;;;;;;;;;;;4995163;28;19918;-85
2022/06/01 10:27:13;;;;;;;;;;;;;;;;;;4979742;28;20309;-85
2022/06/01 10:29:43;;;;;;;;;;;;;;;;;;4981483;28;19917;-85
2022/06/01 10:32:10;;;;;;;;;;;;;;;;;;4981757;28;20407;-86
2022/06/01 10:34:35;;;;;;;;;;;;;;;;;;4974265;28;19925;-85
2022/06/01 10:37:03;;;;;;;;;;;;;;;;;;4989581;28;20281;-85
2022/06/01 10:39:30;;;;;;;;;;;;;;;;;;4993483;28;19968;-85
2022/06/01 10:42:16;;;;;;;;;;;;;;;;;;5000348;28;20398;-85
2022/06/01 10:44:58;;;;;;;;;;;;;;;;;;4999806;28;19932;-85
2022/06/01 10:47:37;;;;;;;;;;;;;;;;;;4982282;28;19918;-85
2022/06/01 10:50:08;;;;;;;;;;;;;;;;;;5006325;28;19920;-85
2022/06/01 10:52:35;;;;;;;;;;;;;;;;;;4998742;28;20407;-84
2022/06/01 10:55:03;;;;;;;;;;;;;;;;;;4983351;28;20437;-84
2022/06/01 10:57:28;;;;;;;;;;;;;;;;;;4989078;28;19917;-85
2022/06/01 10:59:53;;;;;;;;;;;;;;;;;;4998025;28;19927;-86
2022/06/01 11:02:26;;;;;;;;;;;;;;;;;;4981956;28;19918;-87
2022/06/01 11:04:57;;;;;;;;;;;;;;;;;;4989431;28;19917;-85
2022/06/01 11:07:23;;;;;;;;;;;;;;;;;;4989019;28;20013;-86
2022/06/01 11:10:10;;;;;;;;;;;;;;;;;;4978541;28;20008;-87
2022/06/01 11:12:44;;;;;;;;;;;;;;;;;;4995262;28;20391;-86
2022/06/01 11:15:23;;;;;;;;;;;;;;;;;;5004771;28;19928;-86
2022/06/01 11:18:01;;;;;;;;;;;;;;;;;;4983582;28;19917;-87
2022/06/01 11:20:40;;;;;;;;;;;;;;;;;;4989242;28;19921;-86
2022/06/01 11:23:06;;;;;;;;;;;;;;;;;;4984008;28;19924;-85
2022/06/01 11:25:37;;;;;;;;;;;;;;;;;;4998019;28;20047;-85
2022/06/01 11:28:18;;;;;;;;;;;;;;;;;;4996122;28;20355;-87
2022/06/01 11:31:03;;;;;;;;;;;;;;;;;;4981407;28;19917;-86
2022/06/01 11:33:32;;;;;;;;;;;;;;;;;;4995204;28;19928;-86
2022/06/01 11:35:59;;;;;;;;;;;;;;;;;;5003571;28;19975;-85
2022/06/01 11:38:26;;;;;;;;;;;;;;;;;;4981967;28;19918;-86
2022/06/01 11:40:55;;;;;;;;;;;;;;;;;;4982301;28;19923;-87
2022/06/01 11:43:34;;;;;;;;;;;;;;;;;;4995072;28;20023;-87
2022/06/01 11:46:00;;;;;;;;;;;;;;;;;;5004160;28;20285;-86
2022/06/01 11:48:26;;;;;;;;;;;;;;;;;;4981360;28;19933;-87
2022/06/01 11:51:00;;;;;;;;;;;;;;;;;;4979741;28;20451;-86
2022/06/01 11:53:28;;;;;;;;;;;;;;;;;;4996986;28;19917;-87
2022/06/01 11:55:53;;;;;;;;;;;;;;;;;;4993927;28;19921;-84
2022/06/01 11:58:18;;;;;;;;;;;;;;;;;;4981217;28;20016;-86
2022/06/01 12:00:51;;;;;;;;;;;;;;;;;;4997340;28;19920;-85
2022/06/01 12:03:16;;;;;;;;;;;;;;;;;;4993941;28;19917;-86
2022/06/01 12:05:56;;;;;;;;;;;;;;;;;;4994665;28;20385;-86
2022/06/01 12:08:22;;;;;;;;;;;;;;;;;;4981842;28;20456;-85
2022/06/01 12:10:54;;;;;;;;;;;;;;;;;;5003561;28;20381;-85
2022/06/01 12:13:24;;;;;;;;;;;;;;;;;;4983469;28;20344;-85
2022/06/01 12:16:04;;;;;;;;;;;;;;;;;;4979592;28;19972;-85
2022/06/01 12:18:29;;;;;;;;;;;;;;;;;;4996507;28;19921;-86
2022/06/01 12:21:14;;;;;;;;;;;;;;;;;;4978056;28;19917;-85
2022/06/01 12:29:32;;;;;;;;;;;;;;;;;;4993989;28;19962;-85
2022/06/01 12:31:57;;;;;;;;;;;;;;;;;;4972011;28;19925;-85
2022/06/01 12:34:29;;;;;;;;;;;;;;;;;;4976509;28;19918;-85
2022/06/01 12:37:13;;;;;;;;;;;;;;;;;;5002919;28;19932;-86
2022/06/01 12:39:38;;;;;;;;;;;;;;;;;;5001676;28;19917;-85
2022/06/01 12:42:13;;;;;;;;;;;;;;;;;;4993490;28;19914;-86
2022/06/01 12:44:39;;;;;;;;;;;;;;;;;;4982237;28;19924;-85
2022/06/01 12:47:05;;;;;;;;;;;;;;;;;;4978760;28;19929;-84
2022/06/01 12:49:32;;;;;;;;;;;;;;;;;;4988548;28;19917;-85
2022/06/01 12:52:01;;;;;;;;;;;;;;;;;;4996845;28;19920;-85
2022/06/01 12:54:30;;;;;;;;;;;;;;;;;;4987064;28;19917;-84
2022/06/01 12:56:56;;;;;;;;;;;;;;;;;;4991552;28;20767;-85
2022/06/01 12:59:24;;;;;;;;;;;;;;;;;;4993273;28;19921;-85
2022/06/01 13:01:58;;;;;;;;;;;;;;;;;;4979355;28;19918;-81
2022/06/01 13:04:24;;;;;;;;;;;;;;;;;;4986857;28;19996;-81
2022/06/01 13:06:49;;;;;;;;;;;;;;;;;;4992290;28;20068;-81
2022/06/01 13:09:18;;;;;;;;;;;;;;;;;;5002942;28;19921;-81
2022/06/01 13:11:43;;;;;;;;;;;;;;;;;;4983452;28;19918;-82
2022/06/01 13:14:09;;;;;;;;;;;;;;;;;;4971111;28;20401;-82
2022/06/01 13:16:45;;;;;;;;;;;;;;;;;;4984845;28;19922;-81
2022/06/01 13:19:20;;;;;;;;;;;;;;;;;;4993958;28;19917;-82
2022/06/01 13:21:55;;;;;;;;;;;;;;;;;;4993279;28;20393;-82
2022/06/01 13:24:20;;;;;;;;;;;;;;;;;;4972670;28;20392;-81
2022/06/01 13:26:47;;;;;;;;;;;;;;;;;;4972476;28;19918;-81
2022/06/01 13:29:20;;;;;;;;;;;;;;;;;;4980149;28;20532;-82
2022/06/01 13:31:49;;;;;;;;;;;;;;;;;;4990768;28;19953;-82
2022/06/01 13:34:22;;;;;;;;;;;;;;;;;;4992147;28;20025;-81
2022/06/01 13:36:47;;;;;;;;;;;;;;;;;;5001430;28;19922;-81
2022/06/01 13:39:13;;;;;;;;;;;;;;;;;;5002167;28;20277;-82
2022/06/01 13:42:00;;;;;;;;;;;;;;;;;;4991083;28;19967;-80
2022/06/01 13:44:43;;;;;;;;;;;;;;;;;;4992863;28;19921;-80
2022/06/01 13:47:12;;;;;;;;;;;;;;;;;;4992384;28;19924;-80
2022/06/01 13:49:40;;;;;;;;;;;;;;;;;;4985703;28;19922;-82
2022/06/01 13:52:06;;;;;;;;;;;;;;;;;;4991004;28;19924;-80
2022/06/01 13:54:34;;;;;;;;;;;;;;;;;;4997486;28;19925;-81
2022/06/01 13:57:09;;;;;;;;;;;;;;;;;;4992094;28;20726;-84
2022/06/01 13:59:36;;;;;;;;;;;;;;;;;;4985185;28;19953;-83
2022/06/01 14:02:22;;;;;;;;;;;;;;;;;;4985442;28;19921;-84
2022/06/01 14:04:50;;;;;;;;;;;;;;;;;;4994669;28;19988;-84
2022/06/01 14:07:18;;;;;;;;;;;;;;;;;;4985236;28;19944;-86
2022/06/01 14:09:50;;;;;;;;;;;;;;;;;;4980805;28;19917;-85
2022/06/01 14:12:16;;;;;;;;;;;;;;;;;;4985361;28;19918;-84
2022/06/01 14:14:43;;;;;;;;;;;;;;;;;;4978636;28;19935;-85
2022/06/01 14:17:09;;;;;;;;;;;;;;;;;;4978845;28;19920;-86
2022/06/01 14:19:34;;;;;;;;;;;;;;;;;;4974963;28;19914;-85
2022/06/01 14:21:59;;;;;;;;;;;;;;;;;;4998112;28;20327;-84
2022/06/01 14:24:25;;;;;;;;;;;;;;;;;;4969829;28;19918;-85
2022/06/01 14:29:34;;;;;;;;;;;;;;;;;;5001025;28;19948;-85
2022/06/01 14:31:59;;;;;;;;;;;;;;;;;;4985707;28;20365;-85
2022/06/01 14:34:26;;;;;;;;;;;;;;;;;;4977962;28;20573;-84
2022/06/01 14:36:51;;;;;;;;;;;;;;;;;;4991326;28;20404;-85
2022/06/01 14:39:19;;;;;;;;;;;;;;;;;;4991602;28;20044;-84
2022/06/01 14:41:45;;;;;;;;;;;;;;;;;;4986030;28;19984;-84
2022/06/01 14:44:14;;;;;;;;;;;;;;;;;;4992874;28;19917;-84
2022/06/01 14:46:39;;;;;;;;;;;;;;;;;;4976820;28;19913;-85
2022/06/01 14:49:05;;;;;;;;;;;;;;;;;;4972130;28;19939;-85
2022/06/01 14:51:34;;;;;;;;;;;;;;;;;;4979745;28;20815;-84
2022/06/01 14:54:00;;;;;;;;;;;;;;;;;;4994017;28;19921;-84
2022/06/01 14:56:25;;;;;;;;;;;;;;;;;;4974630;28;20004;-84
2022/06/01 14:58:50;;;;;;;;;;;;;;;;;;4966717;28;20005;-84
2022/06/01 15:01:46;;;;;;;;;;;;;;;;;;4967669;28;20052;-83
2022/06/01 15:04:13;;;;;;;;;;;;;;;;;;4991377;28;19934;-84
2022/06/01 15:06:39;;;;;;;;;;;;;;;;;;4991184;28;19921;-84
2022/06/01 15:09:04;;;;;;;;;;;;;;;;;;4991695;28;19918;-84
2022/06/01 15:11:29;;;;;;;;;;;;;;;;;;4992728;28;20391;-82
2022/06/01 15:13:54;;;;;;;;;;;;;;;;;;4973230;28;20369;-82
2022/06/01 15:16:19;;;;;;;;;;;;;;;;;;4980984;28;19922;-84
2022/06/01 15:18:45;;;;;;;;;;;;;;;;;;4981269;28;19953;-83
2022/06/01 15:21:16;;;;;;;;;;;;;;;;;;4977763;28;19922;-83
2022/06/01 15:23:41;;;;;;;;;;;;;;;;;;4978940;28;19921;-83
2022/06/01 15:26:07;;;;;;;;;;;;;;;;;;4976712;28;19921;-84
2022/06/01 15:28:33;;;;;;;;;;;;;;;;;;4979028;28;20009;-83
2022/06/01 15:39:30;;;;;;;;;;;;;;;;;;5003545;28;19975;-83
2022/06/01 15:41:55;;;;;;;;;;;;;;;;;;4995476;28;19956;-82
2022/06/01 15:44:23;;;;;;;;;;;;;;;;;;4971306;28;19918;-83
2022/06/01 15:46:48;;;;;;;;;;;;;;;;;;4988949;28;19918;-83
2022/06/01 15:49:14;;;;;;;;;;;;;;;;;;4978465;28;20306;-83
2022/06/01 15:51:39;;;;;;;;;;;;;;;;;;4990686;28;19918;-83
2022/06/01 15:54:05;;;;;;;;;;;;;;;;;;4961510;28;20351;-83
2022/06/01 15:56:31;;;;;;;;;;;;;;;;;;4986782;28;19924;-83
2022/06/01 15:58:59;;;;;;;;;;;;;;;;;;4983741;28;19960;-82
2022/06/01 16:01:24;;;;;;;;;;;;;;;;;;4978940;28;19918;-83
2022/06/01 16:03:50;;;;;;;;;;;;;;;;;;4980666;28;20381;-84
2022/06/01 16:06:15;;;;;;;;;;;;;;;;;;4981980;28;20009;-83
2022/06/01 16:08:42;;;;;;;;;;;;;;;;;;4997211;28;20009;-83
2022/06/01 16:11:07;;;;;;;;;;;;;;;;;;4978979;28;20456;-83
2022/06/01 16:13:32;;;;;;;;;;;;;;;;;;4978755;28;19996;-82
2022/06/01 16:15:58;;;;;;;;;;;;;;;;;;4963052;28;19928;-83
2022/06/01 16:18:24;;;;;;;;;;;;;;;;;;4970951;28;19972;-83
2022/06/01 16:20:50;;;;;;;;;;;;;;;;;;4968552;28;19979;-83
2022/06/01 16:23:15;;;;;;;;;;;;;;;;;;4981696;28;19925;-83
2022/06/01 16:25:40;;;;;;;;;;;;;;;;;;4981101;28;19925;-83
2022/06/01 16:28:06;;;;;;;;;;;;;;;;;;4980563;28;19925;-84
2022/06/01 16:30:31;;;;;;;;;;;;;;;;;;4996404;28;19914;-82
2022/06/01 16:32:56;;;;;;;;;;;;;;;;;;4982220;28;19918;-83
2022/06/01 16:35:23;;;;;;;;;;;;;;;;;;4979510;28;19972;-83
2022/06/01 16:37:48;;;;;;;;;;;;;;;;;;4997152;28;20652;-84
2022/06/01 16:40:15;;;;;;;;;;;;;;;;;;4980520;28;19921;-83
2022/06/01 16:42:41;;;;;;;;;;;;;;;;;;4985093;28;19917;-83
2022/06/01 16:45:07;;;;;;;;;;;;;;;;;;4974499;28;19925;-83
2022/06/01 16:47:32;;;;;;;;;;;;;;;;;;4980897;28;20008;-83
2022/06/01 16:49:58;;;;;;;;;;;;;;;;;;4987013;28;19948;-82
2022/06/01 16:52:23;;;;;;;;;;;;;;;;;;4980927;28;20361;-83
2022/06/01 16:54:49;;;;;;;;;;;;;;;;;;4970593;28;20424;-84
2022/06/01 16:57:15;;;;;;;;;;;;;;;;;;4983321;28;20585;-83
2022/06/01 16:59:40;;;;;;;;;;;;;;;;;;4980753;28;19917;-83
2022/06/01 17:02:06;;;;;;;;;;;;;;;;;;4986871;28;19925;-83
2022/06/01 17:04:33;;;;;;;;;;;;;;;;;;4982605;28;19957;-83
2022/06/01 17:06:59;;;;;;;;;;;;;;;;;;4992827;28;19940;-83
2022/06/01 17:09:25;;;;;;;;;;;;;;;;;;4982303;28;20184;-83
2022/06/01 17:11:50;;;;;;;;;;;;;;;;;;4974003;28;19948;-82
2022/06/01 17:14:15;;;;;;;;;;;;;;;;;;4974823;28;19918;-83
2022/06/01 17:16:41;;;;;;;;;;;;;;;;;;4984999;28;19921;-83
2022/06/01 17:19:07;;;;;;;;;;;;;;;;;;4980075;28;19922;-83
2022/06/01 17:21:33;;;;;;;;;;;;;;;;;;4993651;28;19923;-83
2022/06/01 17:23:58;;;;;;;;;;;;;;;;;;4980589;28;19969;-84
2022/06/01 17:26:23;;;;;;;;;;;;;;;;;;4985583;28;19918;-83
2022/06/01 17:28:48;;;;;;;;;;;;;;;;;;4987180;28;19926;-83
2022/06/01 17:31:15;;;;;;;;;;;;;;;;;;4980802;28;19918;-83
2022/06/01 17:33:40;;;;;;;;;;;;;;;;;;5003542;28;20012;-83
2022/06/01 17:36:05;;;;;;;;;;;;;;;;;;4974932;28;20028;-83